createdAt,value
2019-03-16T00:00:34.711Z,20.8
2019-03-16T00:01:24.451Z,20.6
2019-03-16T00:02:14.234Z,20.4
2019-03-16T00:03:04.547Z,20.3
2019-03-16T00:03:54.053Z,20.1
2019-03-16T00:04:44.373Z,20.1
2019-03-16T00:05:33.716Z,20
2019-03-16T00:06:24.288Z,19.9
2019-03-16T00:07:13.233Z,19.7
2019-03-16T00:08:03.878Z,19.6
2019-03-16T00:08:54.678Z,19.4
2019-03-16T00:09:45.291Z,19.3
2019-03-16T00:10:35.043Z,19.1
2019-03-16T00:11:24.870Z,19
2019-03-16T00:12:14.991Z,18.9
2019-03-16T00:13:05.343Z,18.8
2019-03-16T00:14:44.525Z,18.6
2019-03-16T00:15:34.949Z,18.6
2019-03-16T00:16:24.980Z,18.6
2019-03-16T00:17:26.778Z,19.3
2019-03-16T00:18:04.816Z,19.9
2019-03-16T00:18:54.529Z,20.3
2019-03-16T00:19:45.688Z,20.6
2019-03-16T00:20:35.875Z,20.9
2019-03-16T00:22:15.345Z,21.3
2019-03-16T00:23:06.403Z,21.5
2019-03-16T00:23:55.450Z,21.6
2019-03-16T00:24:45.503Z,21.8
2019-03-16T00:25:35.959Z,21.9
2019-03-16T00:26:25.660Z,22
2019-03-16T00:27:16.257Z,22.1
2019-03-16T00:28:06.022Z,22.2
2019-03-16T00:28:55.826Z,22.3
2019-03-16T00:29:46.765Z,22.4
2019-03-16T00:30:35.532Z,22.4
2019-03-16T00:31:26.815Z,22.5
2019-03-16T00:32:22.365Z,22.6
2019-03-16T00:33:05.895Z,22.6
2019-03-16T00:33:56.792Z,22.8
2019-03-16T00:34:46.017Z,22.8
2019-03-16T00:35:35.565Z,22.5
2019-03-16T00:36:26.897Z,22
2019-03-16T00:37:16.972Z,21.6
2019-03-16T00:38:07.019Z,21.3
2019-03-16T00:38:57.064Z,20.9
2019-03-16T00:39:47.132Z,20.8
2019-03-16T00:40:37.232Z,20.6
2019-03-16T00:41:27.256Z,20.4
2019-03-16T00:42:17.669Z,20.3
2019-03-16T00:43:07.678Z,20.1
2019-03-16T00:43:57.138Z,20
2019-03-16T00:44:46.927Z,19.9
2019-03-16T00:45:37.281Z,19.9
2019-03-16T00:46:27.706Z,19.7
2019-03-16T00:47:17.129Z,19.5
2019-03-16T00:48:07.731Z,19.4
2019-03-16T00:48:57.789Z,19.2
2019-03-16T00:49:48.382Z,19.1
2019-03-16T00:50:37.696Z,18.9
2019-03-16T00:51:27.756Z,18.9
2019-03-16T00:52:18.375Z,18.8
2019-03-16T00:53:57.628Z,18.6
2019-03-16T00:54:47.370Z,18.5
2019-03-16T00:55:37.413Z,18.5
2019-03-16T00:56:28.067Z,18.9
2019-03-16T00:57:17.639Z,19.6
2019-03-16T00:58:08.138Z,20.1
2019-03-16T00:58:58.172Z,20.4
2019-03-16T00:59:48.337Z,20.8
2019-03-16T01:00:38.409Z,21
2019-03-16T01:01:28.096Z,21.2
2019-03-16T01:02:35.786Z,21.3
2019-03-16T01:03:08.775Z,21.6
2019-03-16T01:03:58.858Z,21.6
2019-03-16T01:04:48.358Z,21.8
2019-03-16T01:05:38.183Z,21.9
2019-03-16T01:06:27.652Z,22
2019-03-16T01:07:17.457Z,22.1
2019-03-16T01:08:08.912Z,22.2
2019-03-16T01:08:58.938Z,22.3
2019-03-16T01:09:51.825Z,22.4
2019-03-16T01:10:39.069Z,22.4
2019-03-16T01:11:29.455Z,22.6
2019-03-16T01:12:19.247Z,22.6
2019-03-16T01:13:08.954Z,22.7
2019-03-16T01:13:59.011Z,22.8
2019-03-16T01:14:49.635Z,22.4
2019-03-16T01:15:39.169Z,21.9
2019-03-16T01:16:30.040Z,21.5
2019-03-16T01:18:09.576Z,20.9
2019-03-16T01:18:59.873Z,20.7
2019-03-16T01:19:50.009Z,20.4
2019-03-16T01:20:39.724Z,20.3
2019-03-16T01:21:29.917Z,20.2
2019-03-16T01:22:19.872Z,20.1
2019-03-16T01:23:09.935Z,19.9
2019-03-16T01:24:00.270Z,19.9
2019-03-16T01:24:48.918Z,19.8
2019-03-16T01:25:40.416Z,19.7
2019-03-16T01:26:30.307Z,19.5
2019-03-16T01:27:21.038Z,19.3
2019-03-16T01:28:10.841Z,19.2
2019-03-16T01:29:00.622Z,19.1
2019-03-16T01:29:49.851Z,18.9
2019-03-16T01:30:39.999Z,18.9
2019-03-16T01:31:31.104Z,18.8
2019-03-16T01:33:11.201Z,18.6
2019-03-16T01:34:00.686Z,18.5
2019-03-16T01:34:52.019Z,18.4
2019-03-16T01:35:41.098Z,18.6
2019-03-16T01:36:31.430Z,19.3
2019-03-16T01:37:19.831Z,19.9
2019-03-16T01:38:11.275Z,20.4
2019-03-16T01:39:00.488Z,20.7
2019-03-16T01:39:50.826Z,21
2019-03-16T01:40:41.314Z,21.2
2019-03-16T01:41:30.753Z,21.4
2019-03-16T01:42:20.813Z,21.6
2019-03-16T01:43:11.537Z,21.6
2019-03-16T01:44:00.101Z,21.2
2019-03-16T01:44:51.478Z,20.6
2019-03-16T01:45:41.518Z,19.8
2019-03-16T01:46:31.945Z,19
2019-03-16T01:47:21.926Z,18.4
2019-03-16T01:48:11.734Z,18.4
2019-03-16T01:49:02.031Z,18.6
2019-03-16T01:49:52.089Z,19.4
2019-03-16T01:50:42.275Z,19.9
2019-03-16T01:51:31.949Z,20.4
2019-03-16T01:52:21.515Z,20.8
2019-03-16T01:53:11.828Z,21.1
2019-03-16T01:54:01.980Z,21.3
2019-03-16T01:54:52.729Z,21.5
2019-03-16T01:55:42.852Z,21.7
2019-03-16T01:56:33.155Z,21.8
2019-03-16T01:57:22.443Z,22
2019-03-16T01:58:12.693Z,22.1
2019-03-16T01:59:02.454Z,22.2
2019-03-16T01:59:52.527Z,22.3
2019-03-16T02:00:43.127Z,22.4
2019-03-16T02:01:33.217Z,22.6
2019-03-16T02:02:22.482Z,22.6
2019-03-16T02:03:13.070Z,22.7
2019-03-16T02:04:03.189Z,22.8
2019-03-16T02:04:53.234Z,22.4
2019-03-16T02:05:42.171Z,21.9
2019-03-16T02:06:33.379Z,21.5
2019-03-16T02:07:23.679Z,21.2
2019-03-16T02:08:13.478Z,20.9
2019-03-16T02:09:02.712Z,20.7
2019-03-16T02:09:53.003Z,20.5
2019-03-16T02:10:43.301Z,20.4
2019-03-16T02:11:33.074Z,20.3
2019-03-16T02:12:23.208Z,20.1
2019-03-16T02:13:13.014Z,20
2019-03-16T02:14:03.551Z,19.9
2019-03-16T02:14:53.653Z,19.9
2019-03-16T02:15:42.911Z,19.8
2019-03-16T02:16:33.738Z,19.6
2019-03-16T02:17:23.357Z,19.4
2019-03-16T02:18:12.449Z,19.3
2019-03-16T02:19:03.654Z,19.1
2019-03-16T02:19:53.651Z,19
2019-03-16T02:20:43.983Z,18.9
2019-03-16T02:21:34.571Z,18.8
2019-03-16T02:23:14.511Z,18.6
2019-03-16T02:24:03.761Z,18.5
2019-03-16T02:24:54.791Z,18.5
2019-03-16T02:25:44.656Z,18.8
2019-03-16T02:26:34.956Z,19.6
2019-03-16T02:27:25.026Z,20.1
2019-03-16T02:28:14.796Z,20.5
2019-03-16T02:29:04.855Z,20.8
2019-03-16T02:29:54.997Z,21.1
2019-03-16T02:30:43.948Z,21.3
2019-03-16T02:31:35.408Z,21.5
2019-03-16T02:32:24.210Z,21.6
2019-03-16T02:33:22.645Z,21.8
2019-03-16T02:34:04.494Z,21.9
2019-03-16T02:34:55.436Z,22.1
2019-03-16T02:35:45.308Z,22.2
2019-03-16T02:36:34.672Z,22.3
2019-03-16T02:37:25.280Z,22.4
2019-03-16T02:38:15.310Z,22.5
2019-03-16T02:39:05.986Z,22.6
2019-03-16T02:39:55.200Z,22.6
2019-03-16T02:40:45.437Z,22.8
2019-03-16T02:41:36.159Z,22.8
2019-03-16T02:42:26.370Z,22.2
2019-03-16T02:43:15.660Z,21.8
2019-03-16T02:44:05.745Z,21.4
2019-03-16T02:44:55.672Z,21.1
2019-03-16T02:45:45.192Z,20.9
2019-03-16T02:46:36.730Z,20.7
2019-03-16T02:47:25.920Z,20.5
2019-03-16T02:48:15.668Z,20.3
2019-03-16T02:49:05.620Z,20.2
2019-03-16T02:49:56.513Z,20.1
2019-03-16T02:50:46.221Z,20
2019-03-16T02:51:36.147Z,19.9
2019-03-16T02:52:26.424Z,19.8
2019-03-16T02:53:16.117Z,19.7
2019-03-16T02:54:06.070Z,19.5
2019-03-16T02:54:56.935Z,19.3
2019-03-16T02:55:46.293Z,19.2
2019-03-16T02:56:37.171Z,19.1
2019-03-16T02:57:26.670Z,18.9
2019-03-16T02:58:16.870Z,18.9
2019-03-16T02:59:06.879Z,18.8
2019-03-16T02:59:57.293Z,18.6
2019-03-16T03:00:47.471Z,18.6
2019-03-16T03:01:37.024Z,18.4
2019-03-16T03:02:26.869Z,18.4
2019-03-16T03:03:35.027Z,18.9
2019-03-16T03:04:06.272Z,19.8
2019-03-16T03:08:29.432Z,21.4
2019-03-16T03:09:18.641Z,21.6
2019-03-16T03:10:09.731Z,21.8
2019-03-16T03:11:00.081Z,21.9
2019-03-16T03:11:49.566Z,22.1
2019-03-16T03:12:39.785Z,22.2
2019-03-16T03:13:29.540Z,22.3
2019-03-16T03:14:20.071Z,22.4
2019-03-16T03:15:09.910Z,22.5
2019-03-16T03:16:00.243Z,22.6
2019-03-16T03:16:50.350Z,22.7
2019-03-16T03:17:39.924Z,22.8
2019-03-16T03:18:29.363Z,22.8
2019-03-16T03:19:19.966Z,22.2
2019-03-16T03:20:09.905Z,21.8
2019-03-16T03:21:00.011Z,21.4
2019-03-16T03:22:40.973Z,20.8
2019-03-16T03:23:30.676Z,20.7
2019-03-16T03:24:20.321Z,20.5
2019-03-16T03:25:10.163Z,20.3
2019-03-16T03:26:00.703Z,20.2
2019-03-16T03:26:50.378Z,20.1
2019-03-16T03:27:40.469Z,20
2019-03-16T03:28:31.169Z,19.9
2019-03-16T03:29:21.172Z,19.8
2019-03-16T03:30:11.699Z,19.6
2019-03-16T03:31:01.330Z,19.4
2019-03-16T03:31:50.618Z,19.3
2019-03-16T03:32:42.594Z,19.2
2019-03-16T03:34:05.733Z,19.1
2019-03-16T03:34:21.140Z,18.9
2019-03-16T03:35:11.578Z,18.8
2019-03-16T03:36:01.116Z,18.8
2019-03-16T03:36:51.012Z,18.6
2019-03-16T03:37:40.995Z,18.6
2019-03-16T03:38:31.277Z,18.4
2019-03-16T03:39:20.529Z,18.6
2019-03-16T03:40:11.803Z,19.4
2019-03-16T03:41:06.994Z,20.1
2019-03-16T03:41:51.854Z,20.5
2019-03-16T03:42:42.301Z,20.8
2019-03-16T03:43:31.401Z,21.1
2019-03-16T03:44:22.353Z,21.3
2019-03-16T03:45:11.859Z,21.5
2019-03-16T03:46:02.100Z,21.6
2019-03-16T03:46:51.878Z,21.8
2019-03-16T03:47:42.046Z,21.9
2019-03-16T03:48:32.109Z,22.1
2019-03-16T03:49:22.647Z,22.2
2019-03-16T03:50:12.322Z,22.3
2019-03-16T03:51:02.530Z,22.4
2019-03-16T03:51:52.478Z,22.5
2019-03-16T03:52:42.319Z,22.6
2019-03-16T03:53:32.036Z,22.4
2019-03-16T03:54:22.183Z,21.9
2019-03-16T03:55:12.926Z,20.9
2019-03-16T03:56:02.651Z,20.1
2019-03-16T03:56:52.289Z,19.3
2019-03-16T03:57:43.077Z,19
2019-03-16T03:58:32.178Z,19
2019-03-16T03:59:22.900Z,19.6
2019-03-16T04:00:12.868Z,20.2
2019-03-16T04:01:03.068Z,20.6
2019-03-16T04:01:52.643Z,21.1
2019-03-16T04:02:43.054Z,21.3
2019-03-16T04:03:33.351Z,21.6
2019-03-16T04:04:25.258Z,21.8
2019-03-16T04:05:13.444Z,22
2019-03-16T04:06:02.663Z,22.1
2019-03-16T04:06:53.345Z,22.3
2019-03-16T04:07:43.352Z,22.4
2019-03-16T04:08:33.594Z,22.6
2019-03-16T04:09:23.626Z,22.6
2019-03-16T04:10:13.913Z,22.8
2019-03-16T04:11:03.598Z,22.6
2019-03-16T04:11:54.228Z,22.1
2019-03-16T04:12:43.923Z,21.6
2019-03-16T04:13:33.755Z,21.3
2019-03-16T04:14:23.926Z,21
2019-03-16T04:15:13.464Z,20.8
2019-03-16T04:16:03.994Z,20.6
2019-03-16T04:16:54.334Z,20.4
2019-03-16T04:17:44.195Z,20.3
2019-03-16T04:18:34.240Z,20.1
2019-03-16T04:19:24.472Z,20.1
2019-03-16T04:20:13.981Z,20
2019-03-16T04:21:04.260Z,19.9
2019-03-16T04:21:54.772Z,19.7
2019-03-16T04:22:44.567Z,19.5
2019-03-16T04:23:34.704Z,19.4
2019-03-16T04:24:24.637Z,19.2
2019-03-16T04:25:29.047Z,19.1
2019-03-16T04:26:05.212Z,18.9
2019-03-16T04:26:54.443Z,18.9
2019-03-16T04:27:45.157Z,18.8
2019-03-16T04:29:24.740Z,18.6
2019-03-16T04:30:15.355Z,18.5
2019-03-16T04:31:05.095Z,18.5
2019-03-16T04:31:55.101Z,18.4
2019-03-16T04:32:45.384Z,18.4
2019-03-16T04:33:35.479Z,18.3
2019-03-16T04:34:38.384Z,18.3
2019-03-16T04:35:15.252Z,18.2
2019-03-16T04:36:05.670Z,18.1
2019-03-16T04:36:55.605Z,18
2019-03-16T04:37:45.549Z,18
2019-03-16T04:38:35.475Z,18.5
2019-03-16T04:39:25.866Z,19.2
2019-03-16T04:40:16.230Z,19.8
2019-03-16T04:41:05.312Z,20.3
2019-03-16T04:41:54.832Z,20.6
2019-03-16T04:42:45.336Z,20.9
2019-03-16T04:43:34.432Z,21.1
2019-03-16T04:44:25.415Z,21.3
2019-03-16T04:45:15.685Z,21.4
2019-03-16T04:46:05.706Z,21.6
2019-03-16T04:46:55.224Z,21.8
2019-03-16T04:47:46.366Z,21.8
2019-03-16T04:48:36.119Z,21.9
2019-03-16T04:49:25.072Z,22.1
2019-03-16T04:50:16.253Z,22.1
2019-03-16T04:51:05.874Z,22.3
2019-03-16T04:51:56.047Z,22.3
2019-03-16T04:52:46.713Z,22.4
2019-03-16T04:53:36.775Z,22.5
2019-03-16T04:54:26.567Z,22.6
2019-03-16T04:55:16.478Z,22.6
2019-03-16T04:56:06.997Z,22.7
2019-03-16T04:56:57.288Z,22.3
2019-03-16T04:57:46.556Z,21.8
2019-03-16T04:58:36.672Z,21.4
2019-03-16T04:59:27.144Z,21.1
2019-03-16T05:00:17.118Z,20.8
2019-03-16T05:01:07.782Z,20.6
2019-03-16T05:01:56.809Z,20.4
2019-03-16T05:02:47.573Z,20.4
2019-03-16T05:03:37.549Z,20.2
2019-03-16T05:04:27.563Z,20.1
2019-03-16T05:05:17.113Z,19.9
2019-03-16T05:06:06.601Z,19.9
2019-03-16T05:06:57.426Z,19.8
2019-03-16T05:07:48.041Z,19.6
2019-03-16T05:08:37.465Z,19.4
2019-03-16T05:09:27.993Z,19.3
2019-03-16T05:10:17.645Z,19.1
2019-03-16T05:11:08.525Z,18.9
2019-03-16T05:11:58.027Z,18.9
2019-03-16T05:12:48.137Z,18.8
2019-03-16T05:14:27.993Z,18.6
2019-03-16T05:15:17.510Z,18.5
2019-03-16T05:16:08.097Z,18.4
2019-03-16T05:16:58.095Z,18.5
2019-03-16T05:17:48.453Z,19.2
2019-03-16T05:18:38.776Z,19.8
2019-03-16T05:19:28.092Z,20.3
2019-03-16T05:20:18.377Z,20.6
2019-03-16T05:21:08.773Z,20.9
2019-03-16T05:22:48.803Z,21.3
2019-03-16T05:23:38.960Z,21.6
2019-03-16T05:24:28.900Z,21.7
2019-03-16T05:25:18.992Z,21.8
2019-03-16T05:26:08.536Z,21.9
2019-03-16T05:26:59.154Z,22.1
2019-03-16T05:27:48.135Z,22.2
2019-03-16T05:28:39.207Z,22.3
2019-03-16T05:29:28.457Z,22.4
2019-03-16T05:30:19.299Z,22.4
2019-03-16T05:31:09.537Z,22.5
2019-03-16T05:31:59.321Z,22.6
2019-03-16T05:32:49.224Z,22.7
2019-03-16T05:33:39.852Z,22.3
2019-03-16T05:34:29.179Z,21.8
2019-03-16T05:35:19.719Z,21.4
2019-03-16T05:36:09.596Z,21.1
2019-03-16T05:37:03.011Z,20.8
2019-03-16T05:37:49.982Z,20.6
2019-03-16T05:38:39.227Z,20.4
2019-03-16T05:39:29.724Z,20.3
2019-03-16T05:40:19.481Z,20.2
2019-03-16T05:41:10.066Z,20.1
2019-03-16T05:41:59.929Z,19.9
2019-03-16T05:42:50.223Z,19.8
2019-03-16T05:43:40.591Z,19.8
2019-03-16T05:44:28.714Z,19.6
2019-03-16T05:45:19.966Z,19.5
2019-03-16T05:46:10.162Z,19.4
2019-03-16T05:47:00.496Z,19.2
2019-03-16T05:47:50.546Z,19.1
2019-03-16T05:48:40.623Z,18.9
2019-03-16T05:49:30.725Z,18.8
2019-03-16T05:51:10.598Z,18.6
2019-03-16T05:52:01.171Z,18.6
2019-03-16T05:52:50.398Z,18.4
2019-03-16T05:53:41.251Z,18.4
2019-03-16T05:54:31.348Z,18.6
2019-03-16T05:55:21.303Z,19.3
2019-03-16T05:56:11.433Z,19.9
2019-03-16T05:57:01.323Z,20.4
2019-03-16T05:57:51.555Z,20.7
2019-03-16T05:58:41.093Z,21.1
2019-03-16T05:59:31.113Z,21.3
2019-03-16T06:00:21.762Z,21.4
2019-03-16T06:01:11.525Z,21.6
2019-03-16T06:02:01.150Z,21.8
2019-03-16T06:02:51.357Z,21.9
2019-03-16T06:05:37.990Z,22.3
2019-03-16T06:06:31.797Z,22.5
2019-03-16T06:07:18.265Z,22.6
2019-03-16T06:08:09.370Z,22.6
2019-03-16T06:08:58.782Z,22.8
2019-03-16T06:09:48.354Z,22.5
2019-03-16T06:10:37.917Z,22
2019-03-16T06:11:28.758Z,21.6
2019-03-16T06:12:18.601Z,21.2
2019-03-16T06:13:09.198Z,20.9
2019-03-16T06:13:58.637Z,20.8
2019-03-16T06:14:49.574Z,20.6
2019-03-16T06:15:38.775Z,20.4
2019-03-16T06:16:29.097Z,20.3
2019-03-16T06:17:18.664Z,20.1
2019-03-16T06:18:09.487Z,20
2019-03-16T06:18:59.272Z,19.9
2019-03-16T06:19:49.064Z,19.8
2019-03-16T06:20:39.204Z,19.6
2019-03-16T06:21:29.737Z,19.4
2019-03-16T06:22:19.264Z,19.3
2019-03-16T06:23:10.331Z,19.1
2019-03-16T06:23:59.411Z,19
2019-03-16T06:24:49.066Z,18.9
2019-03-16T06:25:40.719Z,18.8
2019-03-16T06:26:29.466Z,18.8
2019-03-16T06:27:19.831Z,18.6
2019-03-16T06:28:10.409Z,18.6
2019-03-16T06:29:00.752Z,18.4
2019-03-16T06:29:50.632Z,18.5
2019-03-16T06:30:40.671Z,18.4
2019-03-16T06:31:30.570Z,18.4
2019-03-16T06:32:20.866Z,18.3
2019-03-16T06:33:10.208Z,18.2
2019-03-16T06:34:00.257Z,18.1
2019-03-16T06:34:50.613Z,18.1
2019-03-16T06:35:40.658Z,18
2019-03-16T06:36:31.073Z,18.1
2019-03-16T06:37:21.074Z,18.9
2019-03-16T06:38:10.858Z,19.6
2019-03-16T06:39:00.993Z,20.3
2019-03-16T06:39:50.697Z,20.7
2019-03-16T06:40:40.023Z,20.9
2019-03-16T06:41:30.815Z,21.2
2019-03-16T06:42:21.405Z,21.4
2019-03-16T06:43:11.745Z,21.8
2019-03-16T06:44:01.005Z,21.9
2019-03-16T06:44:51.133Z,22.2
2019-03-16T06:45:41.753Z,22.3
2019-03-16T06:46:32.184Z,22.4
2019-03-16T06:47:24.623Z,22.6
2019-03-16T06:48:11.092Z,22.7
2019-03-16T06:49:02.305Z,22.7
2019-03-16T06:49:51.745Z,22.8
2019-03-16T06:50:42.340Z,22.9
2019-03-16T06:51:32.337Z,22.8
2019-03-16T06:52:22.102Z,22.2
2019-03-16T06:53:11.059Z,21.8
2019-03-16T06:54:01.697Z,21.4
2019-03-16T06:54:51.739Z,21.2
2019-03-16T06:55:41.937Z,21.1
2019-03-16T06:56:31.924Z,20.9
2019-03-16T06:57:21.750Z,20.7
2019-03-16T06:58:12.247Z,20.5
2019-03-16T06:59:05.686Z,20.4
2019-03-16T06:59:52.198Z,20.3
2019-03-16T07:00:42.145Z,20
2019-03-16T07:01:32.807Z,19.9
2019-03-16T07:02:23.077Z,19.9
2019-03-16T07:03:13.159Z,19.7
2019-03-16T07:05:46.414Z,19.1
2019-03-16T07:06:27.974Z,19
2019-03-16T07:07:18.939Z,18.9
2019-03-16T07:08:09.017Z,18.8
2019-03-16T07:08:59.009Z,18.8
2019-03-16T07:09:48.859Z,18.6
2019-03-16T07:10:39.140Z,18.6
2019-03-16T07:11:28.436Z,18.4
2019-03-16T07:12:19.033Z,18.4
2019-03-16T07:13:09.103Z,18.3
2019-03-16T07:13:58.930Z,18.3
2019-03-16T07:14:49.133Z,18.3
2019-03-16T07:15:39.536Z,18.8
2019-03-16T07:16:29.029Z,19.5
2019-03-16T07:17:18.483Z,20
2019-03-16T07:18:09.408Z,20.4
2019-03-16T07:19:07.304Z,20.7
2019-03-16T07:20:40.168Z,21.3
2019-03-16T07:21:29.361Z,21.6
2019-03-16T07:22:19.653Z,21.8
2019-03-16T07:23:09.341Z,22.1
2019-03-16T07:23:59.538Z,22.2
2019-03-16T07:24:54.005Z,22.3
2019-03-16T07:25:39.983Z,22.4
2019-03-16T07:26:29.365Z,22.5
2019-03-16T07:27:34.575Z,22.6
2019-03-16T07:28:10.158Z,22.6
2019-03-16T07:28:59.836Z,22.3
2019-03-16T07:29:49.613Z,21.8
2019-03-16T07:30:43.006Z,21.4
2019-03-16T07:32:20.128Z,20.9
2019-03-16T07:33:10.201Z,20.7
2019-03-16T07:34:00.235Z,20.5
2019-03-16T07:34:50.332Z,20.4
2019-03-16T07:35:40.640Z,20.3
2019-03-16T07:36:31.330Z,20.1
2019-03-16T07:37:20.705Z,20
2019-03-16T07:38:11.397Z,19.9
2019-03-16T07:39:00.369Z,19.8
2019-03-16T07:39:50.898Z,19.7
2019-03-16T07:40:41.329Z,19.6
2019-03-16T07:41:30.767Z,19.5
2019-03-16T07:42:21.727Z,19.4
2019-03-16T07:43:11.959Z,19.4
2019-03-16T07:44:01.722Z,19.3
2019-03-16T07:44:51.092Z,19.3
2019-03-16T07:45:41.334Z,19.2
2019-03-16T07:46:31.136Z,19.1
2019-03-16T07:47:21.434Z,19
2019-03-16T07:48:11.864Z,18.9
2019-03-16T07:49:01.605Z,18.9
2019-03-16T07:49:51.991Z,18.8
2019-03-16T07:51:31.452Z,18.6
2019-03-16T07:52:21.019Z,18.6
2019-03-16T07:53:11.868Z,18.5
2019-03-16T07:54:01.899Z,18.4
2019-03-16T07:54:51.701Z,18.8
2019-03-16T07:55:45.704Z,19.6
2019-03-16T07:56:32.134Z,20.3
2019-03-16T07:57:21.883Z,20.9
2019-03-16T07:58:12.293Z,21.3
2019-03-16T07:59:02.270Z,21.6
2019-03-16T07:59:52.321Z,21.8
2019-03-16T08:00:42.113Z,22.1
2019-03-16T08:01:32.138Z,22.3
2019-03-16T08:02:23.106Z,22.4
2019-03-16T08:03:11.712Z,22.7
2019-03-16T08:04:01.840Z,22.8
2019-03-16T08:04:52.766Z,22.9
2019-03-16T08:05:42.830Z,23.1
2019-03-16T08:06:36.298Z,22.9
2019-03-16T08:07:22.735Z,22.3
2019-03-16T08:08:11.881Z,21.9
2019-03-16T08:09:03.671Z,21.6
2019-03-16T08:09:52.578Z,21.3
2019-03-16T08:10:41.742Z,21
2019-03-16T08:11:32.458Z,20.8
2019-03-16T08:12:22.733Z,20.7
2019-03-16T08:13:12.056Z,20.6
2019-03-16T08:14:02.383Z,20.4
2019-03-16T08:14:53.360Z,20.3
2019-03-16T08:15:43.225Z,20.1
2019-03-16T08:16:33.483Z,20.1
2019-03-16T08:17:22.709Z,19.9
2019-03-16T08:18:15.700Z,19.9
2019-03-16T08:19:03.970Z,19.8
2019-03-16T08:19:53.788Z,19.7
2019-03-16T08:20:44.330Z,19.7
2019-03-16T08:21:34.790Z,19.6
2019-03-16T08:22:24.179Z,19.6
2019-03-16T08:23:14.514Z,19.6
2019-03-16T08:24:04.675Z,19.4
2019-03-16T08:24:54.893Z,19.3
2019-03-16T08:25:43.619Z,19.3
2019-03-16T08:26:33.925Z,19.2
2019-03-16T08:27:24.244Z,19.1
2019-03-16T08:28:14.555Z,18.9
2019-03-16T08:29:08.273Z,18.9
2019-03-16T08:29:54.697Z,18.8
2019-03-16T08:30:44.917Z,18.8
2019-03-16T08:31:34.819Z,18.6
2019-03-16T08:32:27.502Z,18.6
2019-03-16T08:33:14.392Z,19
2019-03-16T08:34:05.301Z,19.8
2019-03-16T08:34:54.476Z,20.6
2019-03-16T08:35:45.192Z,21.2
2019-03-16T08:36:35.314Z,21.8
2019-03-16T08:37:24.789Z,22.1
2019-03-16T08:38:15.314Z,22.3
2019-03-16T08:39:05.366Z,22.6
2019-03-16T08:39:55.739Z,22.7
2019-03-16T08:40:45.091Z,22.9
2019-03-16T08:41:35.347Z,23.1
2019-03-16T08:42:25.666Z,23.3
2019-03-16T08:43:14.164Z,23.3
2019-03-16T08:44:04.833Z,22.7
2019-03-16T08:44:55.566Z,22.3
2019-03-16T08:45:44.872Z,21.8
2019-03-16T08:46:34.289Z,21.5
2019-03-16T08:47:24.713Z,21.3
2019-03-16T08:48:29.591Z,21
2019-03-16T08:49:04.956Z,20.8
2019-03-16T08:49:55.869Z,20.7
2019-03-16T08:50:46.371Z,20.6
2019-03-16T08:51:35.713Z,20.4
2019-03-16T08:52:26.336Z,20.3
2019-03-16T08:53:16.396Z,20.3
2019-03-16T08:54:06.165Z,20.1
2019-03-16T08:54:55.983Z,20
2019-03-16T08:55:45.972Z,19.9
2019-03-16T08:56:36.263Z,19.8
2019-03-16T08:57:26.166Z,19.8
2019-03-16T08:58:16.500Z,19.7
2019-03-16T08:59:06.338Z,19.6
2019-03-16T08:59:56.325Z,19.5
2019-03-16T09:00:47.180Z,19.4
2019-03-16T09:01:36.685Z,19.4
2019-03-16T09:02:26.738Z,19.3
2019-03-16T09:03:16.582Z,19.3
2019-03-16T09:04:06.852Z,19.2
2019-03-16T09:04:56.094Z,19.1
2019-03-16T09:05:46.810Z,19
2019-03-16T09:06:36.851Z,18.9
2019-03-16T09:07:26.105Z,18.9
2019-03-16T09:08:17.503Z,18.8
2019-03-16T09:09:57.255Z,18.8
2019-03-16T09:10:47.335Z,19.6
2019-03-16T09:11:37.657Z,20.5
2019-03-16T09:12:27.290Z,21.2
2019-03-16T09:13:17.225Z,21.6
2019-03-16T09:14:07.282Z,21.9
2019-03-16T09:14:58.210Z,22.3
2019-03-16T09:15:47.739Z,22.5
2019-03-16T09:16:37.855Z,22.7
2019-03-16T09:17:27.530Z,22.9
2019-03-16T09:18:17.566Z,23.2
2019-03-16T09:19:08.832Z,23.4
2019-03-16T09:19:57.482Z,23.4
2019-03-16T09:20:48.031Z,22.9
2019-03-16T09:21:38.634Z,22.4
2019-03-16T09:22:32.058Z,21.9
2019-03-16T09:23:18.266Z,21.6
2019-03-16T09:24:08.064Z,21.4
2019-03-16T09:24:58.384Z,21.2
2019-03-16T09:25:48.480Z,20.9
2019-03-16T09:26:38.508Z,20.8
2019-03-16T09:27:40.117Z,20.7
2019-03-16T09:28:26.627Z,20.5
2019-03-16T09:29:21.886Z,20.4
2019-03-16T09:29:58.375Z,20.4
2019-03-16T09:30:48.485Z,20.3
2019-03-16T09:31:39.379Z,20.1
2019-03-16T09:32:28.562Z,20.1
2019-03-16T09:33:20.935Z,20
2019-03-16T09:34:08.787Z,19.9
2019-03-16T09:34:58.917Z,19.8
2019-03-16T09:35:48.702Z,19.8
2019-03-16T09:36:39.312Z,19.6
2019-03-16T09:37:29.209Z,19.6
2019-03-16T09:38:19.292Z,19.5
2019-03-16T09:39:09.312Z,19.4
2019-03-16T09:39:58.582Z,19.4
2019-03-16T09:40:49.504Z,19.3
2019-03-16T09:41:39.327Z,19.3
2019-03-16T09:42:28.794Z,19.2
2019-03-16T09:43:20.200Z,19.1
2019-03-16T09:44:10.256Z,19
2019-03-16T09:45:00.472Z,18.9
2019-03-16T09:45:48.991Z,18.9
2019-03-16T09:46:39.904Z,18.9
2019-03-16T09:47:29.370Z,19.4
2019-03-16T09:48:19.441Z,20.4
2019-03-16T09:50:01.034Z,21.8
2019-03-16T09:51:04.273Z,22.4
2019-03-16T09:51:39.106Z,22.7
2019-03-16T09:52:30.939Z,22.9
2019-03-16T09:53:20.086Z,23.1
2019-03-16T09:54:10.681Z,23.4
2019-03-16T09:54:59.518Z,23.6
2019-03-16T09:55:50.541Z,23.6
2019-03-16T09:56:40.574Z,23
2019-03-16T09:57:30.109Z,22.5
2019-03-16T09:58:34.752Z,22.1
2019-03-16T09:59:10.209Z,21.7
2019-03-16T10:00:01.068Z,21.5
2019-03-16T10:00:50.612Z,21.3
2019-03-16T10:01:40.234Z,21.1
2019-03-16T10:02:30.949Z,20.9
2019-03-16T10:03:20.764Z,20.8
2019-03-16T10:04:10.844Z,20.8
2019-03-16T10:06:38.049Z,20.4
2019-03-16T10:07:28.944Z,20.3
2019-03-16T10:08:21.777Z,20.3
2019-03-16T10:09:08.264Z,20.1
2019-03-16T10:09:59.401Z,20.1
2019-03-16T10:10:48.669Z,20
2019-03-16T10:11:38.749Z,19.9
2019-03-16T10:12:29.113Z,19.9
2019-03-16T10:13:18.364Z,19.8
2019-03-16T10:14:09.429Z,19.7
2019-03-16T10:14:58.406Z,19.6
2019-03-16T10:15:48.986Z,19.5
2019-03-16T10:16:39.330Z,19.4
2019-03-16T10:17:29.386Z,19.3
2019-03-16T10:18:19.828Z,19.3
2019-03-16T10:19:09.314Z,19.2
2019-03-16T10:19:58.563Z,19.1
2019-03-16T10:20:49.058Z,19.1
2019-03-16T10:21:38.929Z,18.9
2019-03-16T10:22:30.133Z,19
2019-03-16T10:23:19.553Z,19.5
2019-03-16T10:24:09.993Z,20.4
2019-03-16T10:24:59.416Z,21.3
2019-03-16T10:25:49.210Z,21.9
2019-03-16T10:26:42.194Z,22.3
2019-03-16T10:27:28.823Z,22.6
2019-03-16T10:28:19.678Z,22.9
2019-03-16T10:29:09.301Z,23.1
2019-03-16T10:29:59.041Z,23.4
2019-03-16T10:30:49.270Z,23.6
2019-03-16T10:31:39.933Z,23.6
2019-03-16T10:32:29.505Z,23.1
2019-03-16T10:33:20.007Z,22.5
2019-03-16T10:34:10.408Z,22.1
2019-03-16T10:34:59.567Z,21.8
2019-03-16T10:35:49.965Z,21.6
2019-03-16T10:36:39.762Z,21.3
2019-03-16T10:37:30.655Z,21.2
2019-03-16T10:38:20.597Z,21
2019-03-16T10:39:10.545Z,20.9
2019-03-16T10:40:01.436Z,20.8
2019-03-16T10:40:50.787Z,20.7
2019-03-16T10:41:40.532Z,20.6
2019-03-16T10:42:31.782Z,20.4
2019-03-16T10:43:20.446Z,20.3
2019-03-16T10:44:11.269Z,20.3
2019-03-16T10:45:01.550Z,20.2
2019-03-16T10:45:51.207Z,20.1
2019-03-16T10:46:41.287Z,20.1
2019-03-16T10:47:30.975Z,19.9
2019-03-16T10:48:21.040Z,19.8
2019-03-16T10:49:11.184Z,19.8
2019-03-16T10:50:01.800Z,19.7
2019-03-16T10:50:51.437Z,19.6
2019-03-16T10:51:41.379Z,19.6
2019-03-16T10:52:30.769Z,19.4
2019-03-16T10:53:22.219Z,19.4
2019-03-16T10:54:11.846Z,19.3
2019-03-16T10:55:02.297Z,19.2
2019-03-16T10:55:52.104Z,19.2
2019-03-16T10:56:42.706Z,19.1
2019-03-16T10:57:32.286Z,19
2019-03-16T10:58:22.581Z,18.9
2019-03-16T10:59:12.074Z,19.1
2019-03-16T11:00:02.139Z,20
2019-03-16T11:00:52.483Z,20.9
2019-03-16T11:01:41.986Z,21.7
2019-03-16T11:02:32.883Z,22.1
2019-03-16T11:03:22.127Z,22.5
2019-03-16T11:04:11.697Z,22.8
2019-03-16T11:05:01.758Z,23.1
2019-03-16T11:05:52.881Z,23.3
2019-03-16T11:06:42.945Z,23.5
2019-03-16T11:07:32.113Z,23.8
2019-03-16T11:08:23.350Z,23.3
2019-03-16T11:09:12.586Z,22.8
2019-03-16T11:10:01.758Z,22.4
2019-03-16T11:10:52.978Z,22
2019-03-16T11:11:43.380Z,21.7
2019-03-16T11:12:33.305Z,21.4
2019-03-16T11:13:22.686Z,21.3
2019-03-16T11:14:12.946Z,21.1
2019-03-16T11:15:02.946Z,20.9
2019-03-16T11:15:53.383Z,20.8
2019-03-16T11:16:44.238Z,20.7
2019-03-16T11:17:47.721Z,20.6
2019-03-16T11:18:23.442Z,20.5
2019-03-16T11:19:14.133Z,20.4
2019-03-16T11:20:04.070Z,20.3
2019-03-16T11:20:53.649Z,20.3
2019-03-16T11:21:43.452Z,20.2
2019-03-16T11:22:34.060Z,20.1
2019-03-16T11:23:23.844Z,20
2019-03-16T11:24:14.237Z,19.9
2019-03-16T11:25:04.695Z,19.9
2019-03-16T11:25:54.319Z,19.8
2019-03-16T11:26:44.052Z,19.7
2019-03-16T11:27:33.810Z,19.6
2019-03-16T11:28:23.891Z,19.6
2019-03-16T11:29:18.017Z,19.5
2019-03-16T11:30:04.130Z,19.4
2019-03-16T11:30:53.901Z,19.3